createdAt,value
2018-04-07T00:00:39.706Z,98669
2018-04-07T00:03:07.256Z,98660
2018-04-07T00:05:34.805Z,98661
2018-04-07T00:08:02.360Z,98661
2018-04-07T00:10:29.906Z,98657
2018-04-07T00:12:58.233Z,98662
2018-04-07T00:15:25.788Z,98657
2018-04-07T00:17:53.378Z,98661
2018-04-07T00:20:20.950Z,98656
2018-04-07T00:22:49.263Z,98656
2018-04-07T00:25:16.813Z,98653
2018-04-07T00:27:44.410Z,98651
2018-04-07T00:30:11.965Z,98644
2018-04-07T00:32:39.517Z,98648
2018-04-07T00:35:07.092Z,98649
2018-04-07T00:37:34.644Z,98645
2018-04-07T00:40:02.226Z,98636
2018-04-07T00:42:29.785Z,98639
2018-04-07T00:44:57.365Z,98630
2018-04-07T00:47:25.689Z,98636
2018-04-07T00:49:53.243Z,98636
2018-04-07T00:52:20.798Z,98641
2018-04-07T00:54:48.358Z,98639
2018-04-07T00:57:15.923Z,98635
2018-04-07T00:59:43.475Z,98637
2018-04-07T01:02:11.034Z,98628
2018-04-07T01:04:38.595Z,98643
2018-04-07T01:07:06.154Z,98636
2018-04-07T01:09:33.705Z,98628
2018-04-07T01:12:01.281Z,98628
2018-04-07T01:14:28.837Z,98635
2018-04-07T01:16:56.398Z,98627
2018-04-07T01:19:23.956Z,98628
2018-04-07T01:21:51.507Z,98632
2018-04-07T01:24:19.835Z,98632
2018-04-07T01:26:48.169Z,98620
2018-04-07T01:29:15.722Z,98626
2018-04-07T01:31:43.286Z,98624
2018-04-07T01:34:11.664Z,98627
2018-04-07T01:36:40.063Z,98628
2018-04-07T01:39:07.676Z,98624
2018-04-07T01:41:35.234Z,98622
2018-04-07T01:44:02.789Z,98621
2018-04-07T01:46:30.353Z,98619
2018-04-07T01:48:58.250Z,98611
2018-04-07T01:51:25.831Z,98612
2018-04-07T01:53:53.413Z,98614
2018-04-07T01:56:21.725Z,98618
2018-04-07T01:58:49.283Z,98615
2018-04-07T02:01:16.834Z,98614
2018-04-07T02:03:44.398Z,98611
2018-04-07T02:06:11.963Z,98603
2018-04-07T02:08:39.521Z,98609
2018-04-07T02:11:07.837Z,98609
2018-04-07T02:13:35.402Z,98592
2018-04-07T02:16:02.951Z,98594
2018-04-07T02:18:30.507Z,98600
2018-04-07T02:20:58.057Z,98590
2018-04-07T02:23:25.618Z,98594
2018-04-07T02:25:53.165Z,98596
2018-04-07T02:28:20.747Z,98591
2018-04-07T02:30:48.301Z,98589
2018-04-07T02:33:15.868Z,98581
2018-04-07T02:35:43.435Z,98583
2018-04-07T02:38:10.986Z,98574
2018-04-07T02:40:38.546Z,98572
2018-04-07T02:43:06.101Z,98581
2018-04-07T02:45:33.665Z,98583
2018-04-07T02:48:01.230Z,98573
2018-04-07T02:50:28.785Z,98576
2018-04-07T02:52:56.357Z,98579
2018-04-07T02:55:24.685Z,98583
2018-04-07T02:57:52.250Z,98579
2018-04-07T03:00:19.800Z,98578
2018-04-07T03:02:47.350Z,98580
2018-04-07T03:05:14.919Z,98574
2018-04-07T03:07:42.487Z,98576
2018-04-07T03:10:10.050Z,98582
2018-04-07T03:12:38.019Z,98585
2018-04-07T03:15:05.565Z,98581
2018-04-07T03:17:33.122Z,98585
2018-04-07T03:20:00.705Z,98574
2018-04-07T03:22:29.049Z,98587
2018-04-07T03:24:56.718Z,98578
2018-04-07T03:27:24.268Z,98570
2018-04-07T03:29:51.833Z,98576
2018-04-07T03:32:19.394Z,98581
2018-04-07T03:34:46.950Z,98577
2018-04-07T03:37:14.516Z,98581
2018-04-07T03:39:42.074Z,98578
2018-04-07T03:42:09.639Z,98583
2018-04-07T03:44:38.193Z,98583
2018-04-07T03:47:05.745Z,98581
2018-04-07T03:49:33.531Z,98578
2018-04-07T03:52:01.111Z,98578
2018-04-07T03:54:28.666Z,98585
2018-04-07T03:56:56.222Z,98590
2018-04-07T03:59:23.786Z,98577
2018-04-07T04:01:51.341Z,98573
2018-04-07T04:04:18.917Z,98572
2018-04-07T04:06:46.486Z,98576
2018-04-07T04:09:14.739Z,98582
2018-04-07T04:11:42.303Z,98581
2018-04-07T04:14:09.875Z,98582
2018-04-07T04:16:37.419Z,98583
2018-04-07T04:19:04.977Z,98586
2018-04-07T04:21:32.550Z,98592
2018-04-07T04:24:00.154Z,98598
2018-04-07T04:26:27.712Z,98603
2018-04-07T04:28:55.275Z,98612
2018-04-07T04:31:22.827Z,98605
2018-04-07T04:33:50.393Z,98612
2018-04-07T04:36:17.939Z,98601
2018-04-07T04:38:46.260Z,98609
2018-04-07T04:41:14.767Z,98605
2018-04-07T04:43:42.318Z,98610
2018-04-07T04:46:09.870Z,98586
2018-04-07T04:48:37.449Z,98593
2018-04-07T04:51:05.770Z,98596
2018-04-07T04:53:33.349Z,98587
2018-04-07T04:56:00.893Z,98583
2018-04-07T04:58:28.450Z,98585
2018-04-07T05:00:56.001Z,98585
2018-04-07T05:03:23.552Z,98577
2018-04-07T05:05:51.106Z,98583
2018-04-07T05:08:18.662Z,98580
2018-04-07T05:10:46.219Z,98593
2018-04-07T05:13:13.778Z,98587
2018-04-07T05:15:42.096Z,98583
2018-04-07T05:18:09.648Z,98591
2018-04-07T05:20:37.209Z,98576
2018-04-07T05:23:04.754Z,98583
2018-04-07T05:25:32.301Z,98583
2018-04-07T05:27:59.851Z,98585
2018-04-07T05:30:27.395Z,98586
2018-04-07T05:32:55.714Z,98591
2018-04-07T05:35:23.266Z,98578
2018-04-07T05:37:50.810Z,98578
2018-04-07T05:40:18.353Z,98578
2018-04-07T05:42:46.674Z,98565
2018-04-07T05:45:14.231Z,98569
2018-04-07T05:47:41.785Z,98573
2018-04-07T05:50:09.349Z,98570
2018-04-07T05:52:36.911Z,98567
2018-04-07T05:55:04.462Z,98571
2018-04-07T05:57:32.015Z,98568
2018-04-07T05:59:59.572Z,98574
2018-04-07T06:02:27.114Z,98575
2018-04-07T06:04:54.682Z,98571
2018-04-07T06:07:22.230Z,98572
2018-04-07T06:09:49.794Z,98590
2018-04-07T06:12:17.368Z,98573
2018-04-07T06:14:44.917Z,98563
2018-04-07T06:17:12.461Z,98560
2018-04-07T06:19:40.020Z,98561
2018-04-07T06:22:07.562Z,98557
2018-04-07T06:24:35.152Z,98571
2018-04-07T06:27:02.702Z,98574
2018-04-07T06:29:31.246Z,98563
2018-04-07T06:31:58.794Z,98524
2018-04-07T06:34:26.354Z,98552
2018-04-07T06:36:53.918Z,98563
2018-04-07T06:39:21.468Z,98553
2018-04-07T06:41:49.009Z,98554
2018-04-07T06:44:16.565Z,98559
2018-04-07T06:46:45.050Z,98556
2018-04-07T06:49:12.602Z,98551
2018-04-07T06:51:40.158Z,98557
2018-04-07T06:54:07.837Z,98564
2018-04-07T06:56:35.407Z,98568
2018-04-07T06:59:02.958Z,98568
2018-04-07T07:01:30.514Z,98578
2018-04-07T07:03:58.092Z,98563
2018-04-07T07:06:26.434Z,98571
2018-04-07T07:08:53.990Z,98573
2018-04-07T07:11:21.753Z,98579
2018-04-07T07:13:49.397Z,98574
2018-04-07T07:16:16.960Z,98573
2018-04-07T07:18:44.523Z,98572
2018-04-07T07:21:12.072Z,98567
2018-04-07T07:23:39.641Z,98570
2018-04-07T07:26:07.221Z,98569
2018-04-07T07:28:34.765Z,98569
2018-04-07T07:31:02.314Z,98566
2018-04-07T07:33:29.871Z,98567
2018-04-07T07:35:57.431Z,98576
2018-04-07T07:38:24.982Z,98574
2018-04-07T07:40:52.535Z,98573
2018-04-07T07:43:20.078Z,98572
2018-04-07T07:45:48.396Z,98562
2018-04-07T07:48:15.950Z,98567
2018-04-07T07:50:43.501Z,98563
2018-04-07T07:53:11.063Z,98559
2018-04-07T07:55:38.606Z,98559
2018-04-07T07:58:06.155Z,98560
2018-04-07T08:00:33.879Z,98550
2018-04-07T08:03:01.435Z,98559
2018-04-07T08:05:29.050Z,98543
2018-04-07T08:07:56.699Z,98548
2018-04-07T08:10:24.353Z,98559
2018-04-07T08:12:52.764Z,98547
2018-04-07T08:15:20.442Z,98549
2018-04-07T08:17:48.078Z,98545
2018-04-07T08:20:15.755Z,98540
2018-04-07T08:22:43.410Z,98531
2018-04-07T08:25:11.087Z,98546
2018-04-07T08:27:38.647Z,98545
2018-04-07T08:30:06.923Z,98540
2018-04-07T08:32:34.477Z,98543
2018-04-07T08:35:02.045Z,98540
2018-04-07T08:37:29.594Z,98539
2018-04-07T08:39:57.181Z,98543
2018-04-07T08:42:24.733Z,98550
2018-04-07T08:44:52.297Z,98545
2018-04-07T08:47:19.857Z,98528
2018-04-07T08:49:47.414Z,98528
2018-04-07T08:52:14.958Z,98536
2018-04-07T08:54:42.517Z,98538
2018-04-07T08:57:10.107Z,98520
2018-04-07T08:59:38.433Z,98524
2018-04-07T09:02:05.994Z,98522
2018-04-07T09:04:33.559Z,98531
2018-04-07T09:07:01.133Z,98528
2018-04-07T09:09:28.841Z,98529
2018-04-07T09:11:56.484Z,98524
2018-04-07T09:14:24.898Z,98529
2018-04-07T09:16:52.473Z,98526
2018-04-07T09:19:20.080Z,98518
2018-04-07T09:21:48.407Z,98514
2018-04-07T09:24:15.963Z,98499
2018-04-07T09:26:43.515Z,98512
2018-04-07T09:29:11.066Z,98516
2018-04-07T09:31:38.639Z,98520
2018-04-07T09:34:06.198Z,98519
2018-04-07T09:36:34.521Z,98510
2018-04-07T09:39:02.073Z,98514
2018-04-07T09:41:29.632Z,98518
2018-04-07T09:43:57.181Z,98515
2018-04-07T09:46:24.736Z,98507
2018-04-07T09:48:52.298Z,98501
2018-04-07T09:51:20.043Z,98514
2018-04-07T09:53:47.598Z,98509
2018-04-07T09:56:15.149Z,98497
2018-04-07T09:58:42.707Z,98507
2018-04-07T10:01:10.249Z,98488
2018-04-07T10:03:37.812Z,98488
2018-04-07T10:06:05.372Z,98493
2018-04-07T10:08:32.928Z,98483
2018-04-07T10:11:00.480Z,98477
2018-04-07T10:13:28.031Z,98483
2018-04-07T10:15:56.385Z,98477
2018-04-07T10:18:23.980Z,98477
2018-04-07T10:20:51.527Z,98473
2018-04-07T10:23:19.873Z,98480
2018-04-07T10:25:47.436Z,98468
2018-04-07T10:28:15.048Z,98469
2018-04-07T10:30:43.336Z,98459
2018-04-07T10:33:10.917Z,98463
2018-04-07T10:35:38.514Z,98453
2018-04-07T10:38:06.838Z,98455
2018-04-07T10:40:34.384Z,98451
2018-04-07T10:43:01.958Z,98455
2018-04-07T10:45:29.519Z,98450
2018-04-07T10:47:57.102Z,98439
2018-04-07T10:50:24.670Z,98439
2018-04-07T10:52:52.232Z,98433
2018-04-07T10:55:20.565Z,98432
2018-04-07T10:57:48.120Z,98428
2018-04-07T11:00:15.689Z,98428
2018-04-07T11:02:43.254Z,98421
2018-04-07T11:05:10.804Z,98418
2018-04-07T11:07:38.346Z,98415
2018-04-07T11:10:05.897Z,98419
2018-04-07T11:12:33.453Z,98418
2018-04-07T11:15:01.010Z,98402
2018-04-07T11:17:28.611Z,98404
2018-04-07T11:19:56.174Z,98403
2018-04-07T11:22:23.722Z,98398
2018-04-07T11:24:51.292Z,98409
2018-04-07T11:32:23.245Z,98376
2018-04-07T11:34:50.811Z,98388
2018-04-07T11:37:18.375Z,98386
2018-04-07T11:39:45.930Z,98380
2018-04-07T11:42:13.622Z,98370
2018-04-07T11:44:41.218Z,98377
2018-04-07T11:47:10.442Z,98371
2018-04-07T11:49:38.767Z,98376
2018-04-07T11:52:06.318Z,98367
2018-04-07T11:54:33.887Z,98367
2018-04-07T11:57:01.447Z,98349
2018-04-07T11:59:29.006Z,98353
2018-04-07T12:01:56.571Z,98355
2018-04-07T12:04:24.894Z,98357
2018-04-07T12:06:52.458Z,98347
2018-04-07T12:09:20.010Z,98345
2018-04-07T12:11:47.570Z,98351
2018-04-07T12:14:15.118Z,98347
2018-04-07T12:16:42.686Z,98346
2018-04-07T12:19:10.235Z,98338
2018-04-07T12:21:37.790Z,98338
2018-04-07T12:24:05.363Z,98335
2018-04-07T12:29:04.818Z,98327
2018-04-07T12:31:32.361Z,98321
2018-04-07T12:33:59.934Z,98325
2018-04-07T12:36:28.399Z,98321
2018-04-07T12:38:55.963Z,98317
2018-04-07T12:41:23.541Z,98315
2018-04-07T12:43:51.072Z,98306
2018-04-07T12:46:18.657Z,98307
2018-04-07T12:48:47.003Z,98298
2018-04-07T12:51:14.569Z,98301
2018-04-07T12:53:42.143Z,98295
2018-04-07T12:56:09.715Z,98297
2018-04-07T12:58:37.265Z,98304
2018-04-07T13:01:04.832Z,98286
2018-04-07T13:03:32.404Z,98283
2018-04-07T13:06:00.733Z,98279
2018-04-07T13:08:28.307Z,98289
2018-04-07T13:10:55.866Z,98283
2018-04-07T13:13:23.415Z,98265
2018-04-07T13:15:50.967Z,98282
2018-04-07T13:18:18.523Z,98269
2018-04-07T13:20:47.024Z,98271
2018-04-07T13:23:14.597Z,98271
2018-04-07T13:25:42.153Z,98271
2018-04-07T13:28:10.616Z,98264
2018-04-07T13:30:38.168Z,98258
2018-04-07T13:33:05.714Z,98257
2018-04-07T13:35:33.256Z,98256
2018-04-07T13:38:00.803Z,98248
2018-04-07T13:40:29.110Z,98237
2018-04-07T13:42:57.614Z,98242
2018-04-07T13:45:25.179Z,98231
2018-04-07T13:47:52.750Z,98221
2018-04-07T13:50:20.295Z,98221
2018-04-07T13:52:48.742Z,98220
2018-04-07T13:55:20.214Z,98213
2018-04-07T13:57:47.773Z,98216
2018-04-07T14:00:15.337Z,98209
2018-04-07T14:02:42.898Z,98201
2018-04-07T14:05:10.778Z,98196
2018-04-07T14:07:38.326Z,98200
2018-04-07T14:10:08.858Z,98191
2018-04-07T14:12:36.397Z,98194
2018-04-07T14:15:03.952Z,98182
2018-04-07T14:17:31.513Z,98189
2018-04-07T14:19:59.827Z,98188
2018-04-07T14:22:27.385Z,98188
2018-04-07T14:24:55.270Z,98185
2018-04-07T14:27:25.051Z,98182
2018-04-07T14:29:53.403Z,98181
2018-04-07T14:32:20.962Z,98176
2018-04-07T14:34:49.451Z,98172
2018-04-07T14:37:17.053Z,98169
2018-04-07T14:39:48.039Z,98167
2018-04-07T14:42:15.582Z,98159
2018-04-07T14:44:43.171Z,98162
2018-04-07T14:47:11.505Z,98156
2018-04-07T14:49:39.042Z,98149
2018-04-07T14:52:07.392Z,98146
2018-04-07T14:54:34.969Z,98144
2018-04-07T14:57:02.542Z,98137
2018-04-07T14:59:30.862Z,98142
2018-04-07T15:01:58.426Z,98148
2018-04-07T15:04:26.865Z,98137
2018-04-07T15:06:55.183Z,98138
2018-04-07T15:09:22.731Z,98143
2018-04-07T15:11:50.297Z,98130
2018-04-07T15:14:17.845Z,98127
2018-04-07T15:16:45.396Z,98137
2018-04-07T15:19:12.947Z,98137
2018-04-07T15:21:40.500Z,98139
2018-04-07T15:24:08.053Z,98144
2018-04-07T15:26:36.371Z,98140
2018-04-07T15:29:03.920Z,98146
2018-04-07T15:31:31.469Z,98137
2018-04-07T15:33:59.438Z,98134
2018-04-07T15:36:26.996Z,98136
2018-04-07T15:38:54.551Z,98133
2018-04-07T15:41:22.094Z,98135
2018-04-07T15:43:49.648Z,98134
2018-04-07T15:46:17.963Z,98123
2018-04-07T15:48:45.510Z,98127
2018-04-07T15:51:13.052Z,98133
2018-04-07T15:53:40.731Z,98124
2018-04-07T15:56:08.267Z,98121
2018-04-07T15:58:40.070Z,98118
2018-04-07T16:01:07.621Z,98124
2018-04-07T16:03:35.184Z,98119
2018-04-07T16:06:02.753Z,98129
2018-04-07T16:08:30.301Z,98129
2018-04-07T16:10:57.882Z,98131
2018-04-07T16:13:25.428Z,98129
2018-04-07T16:15:52.990Z,98126
2018-04-07T16:18:20.541Z,98126
2018-04-07T16:20:48.101Z,98123
2018-04-07T16:23:15.781Z,98124
2018-04-07T16:25:45.250Z,98129
2018-04-07T16:28:12.974Z,98125
2018-04-07T16:30:42.433Z,98124
2018-04-07T16:33:14.870Z,98113
2018-04-07T16:35:42.551Z,98118
2018-04-07T16:38:10.316Z,98120
2018-04-07T16:40:38.630Z,98120
2018-04-07T16:43:07.147Z,98118
2018-04-07T16:45:34.864Z,98115
2018-04-07T16:48:03.399Z,98120
2018-04-07T16:50:31.158Z,98118
2018-04-07T16:52:59.749Z,98113
2018-04-07T16:55:27.852Z,98119
2018-04-07T16:57:56.087Z,98120
2018-04-07T17:00:23.671Z,98116
2018-04-07T17:02:52.169Z,98117
2018-04-07T17:05:19.742Z,98120
2018-04-07T17:07:47.293Z,98117
2018-04-07T17:10:14.849Z,98112
2018-04-07T17:12:42.397Z,98118
2018-04-07T17:15:09.966Z,98107
2018-04-07T17:17:37.558Z,98113
2018-04-07T17:20:05.876Z,98114
2018-04-07T17:22:33.430Z,98109
2018-04-07T17:25:00.986Z,98103
2018-04-07T17:27:28.546Z,98102
2018-04-07T17:29:56.101Z,98111
2018-04-07T17:32:23.650Z,98103
2018-04-07T17:34:51.214Z,98102
2018-04-07T17:37:18.761Z,98108
2018-04-07T17:39:47.094Z,98112
2018-04-07T17:42:14.676Z,98107
2018-04-07T17:44:42.231Z,98108
2018-04-07T17:47:09.783Z,98104
2018-04-07T17:49:43.733Z,98107
2018-04-07T17:52:05.831Z,98100
2018-04-07T17:54:33.387Z,98101
2018-04-07T17:57:00.948Z,98107
2018-04-07T17:59:29.411Z,98104
2018-04-07T18:01:57.033Z,98115
2018-04-07T18:04:24.648Z,98119
2018-04-07T18:06:52.198Z,98115
2018-04-07T18:09:19.768Z,98108
2018-04-07T18:11:48.090Z,98116
2018-04-07T18:14:15.892Z,98116
2018-04-07T18:16:43.582Z,98126
2018-04-07T18:19:11.321Z,98124
2018-04-07T18:21:39.821Z,98117
2018-04-07T18:24:07.605Z,98119
2018-04-07T18:26:35.376Z,98131
2018-04-07T18:29:03.161Z,98142
2018-04-07T18:31:30.887Z,98133
2018-04-07T18:33:59.312Z,98143
2018-04-07T18:36:27.964Z,98141
2018-04-07T18:38:58.286Z,98148
2018-04-07T18:41:26.054Z,98146
2018-04-07T18:43:53.835Z,98145
2018-04-07T18:46:21.574Z,98147
2018-04-07T18:48:50.255Z,98156
2018-04-07T18:51:17.847Z,98151
2018-04-07T18:53:45.446Z,98151
2018-04-07T18:56:12.985Z,98166
2018-04-07T18:58:40.559Z,98165
2018-04-07T19:01:09.036Z,98173
2018-04-07T19:03:36.597Z,98177
2018-04-07T19:06:04.162Z,98181
2018-04-07T19:08:31.715Z,98173
2018-04-07T19:10:59.269Z,98176
2018-04-07T19:13:26.855Z,98175
2018-04-07T19:15:55.172Z,98180
2018-04-07T19:18:22.747Z,98177
2018-04-07T19:20:50.308Z,98173
2018-04-07T19:23:17.865Z,98168
2018-04-07T19:25:46.333Z,98166
2018-04-07T19:28:13.896Z,98171
2018-04-07T19:30:41.449Z,98170
2018-04-07T19:33:09.007Z,98166
2018-04-07T19:35:36.582Z,98161
2018-04-07T19:38:04.167Z,98167
2018-04-07T19:40:31.714Z,98176
2018-04-07T19:42:59.275Z,98171
2018-04-07T19:45:26.826Z,98165
2018-04-07T19:47:54.379Z,98173
2018-04-07T19:50:21.938Z,98180
2018-04-07T19:52:49.513Z,98176
2018-04-07T19:55:17.091Z,98167
2018-04-07T19:57:45.412Z,98176
2018-04-07T20:00:12.978Z,98160
2018-04-07T20:02:40.533Z,98174
2018-04-07T20:05:08.094Z,98172
2018-04-07T20:07:35.650Z,98169
2018-04-07T20:10:07.862Z,98155
2018-04-07T20:12:35.413Z,98169
2018-04-07T20:15:02.976Z,98168
2018-04-07T20:17:30.533Z,98175
2018-04-07T20:19:58.084Z,98167
2018-04-07T20:22:25.648Z,98173
2018-04-07T20:24:53.208Z,98166
2018-04-07T20:27:20.778Z,98164
2018-04-07T20:29:48.341Z,98160
2018-04-07T20:32:16.691Z,98164
2018-04-07T20:34:44.255Z,98165
2018-04-07T20:37:13.747Z,98161
2018-04-07T20:39:41.307Z,98162
2018-04-07T20:42:20.562Z,98170
2018-04-07T20:44:48.123Z,98175
2018-04-07T20:47:15.676Z,98167
2018-04-07T20:49:43.231Z,98158
2018-04-07T20:52:10.790Z,98156
2018-04-07T20:54:38.338Z,98158
2018-04-07T20:57:05.894Z,98155
2018-04-07T20:59:33.447Z,98164
2018-04-07T21:02:01.019Z,98163
2018-04-07T21:04:28.565Z,98163
2018-04-07T21:06:56.126Z,98153
2018-04-07T21:09:23.694Z,98160
2018-04-07T21:11:51.253Z,98161
2018-04-07T21:16:12.030Z,98160
2018-04-07T21:18:39.606Z,98166
2018-04-07T21:21:07.169Z,98164
2018-04-07T21:25:45.727Z,98174
2018-04-07T21:28:13.280Z,98159
2018-04-07T21:30:40.830Z,98168
2018-04-07T21:33:08.412Z,98176
2018-04-07T21:35:36.755Z,98174
2018-04-07T21:38:04.302Z,98169
2018-04-07T21:40:31.850Z,98164
2018-04-07T21:42:59.384Z,98175
2018-04-07T21:45:26.957Z,98177
2018-04-07T21:47:54.510Z,98171
2018-04-07T21:50:22.073Z,98180
2018-04-07T21:52:49.628Z,98167
2018-04-07T21:55:17.180Z,98175
2018-04-07T21:57:44.736Z,98175
2018-04-07T22:00:13.044Z,98179
2018-04-07T22:02:40.589Z,98176
2018-04-07T22:05:08.134Z,98172
2018-04-07T22:07:36.108Z,98174
2018-04-07T22:10:03.658Z,98174
2018-04-07T22:12:31.211Z,98172
2018-04-07T22:14:59.526Z,98177
2018-04-07T22:17:27.084Z,98178
2018-04-07T22:19:54.640Z,98184
2018-04-07T22:22:22.188Z,98191
2018-04-07T22:24:49.733Z,98181
2018-04-07T22:27:17.297Z,98180
2018-04-07T22:29:44.851Z,98190
2018-04-07T22:32:12.402Z,98189
2018-04-07T22:34:40.721Z,98187
2018-04-07T22:37:08.265Z,98201
2018-04-07T22:39:35.859Z,98191
2018-04-07T22:42:03.428Z,98183
2018-04-07T22:44:30.972Z,98192
2018-04-07T22:46:58.521Z,98172
2018-04-07T22:49:27.104Z,98193
2018-04-07T22:51:54.691Z,98186
2018-04-07T22:54:22.245Z,98189
2018-04-07T22:56:49.792Z,98195
2018-04-07T22:59:17.370Z,98187
2018-04-07T23:01:44.934Z,98193
2018-04-07T23:04:13.255Z,98187
2018-04-07T23:06:40.813Z,98172
2018-04-07T23:09:08.406Z,98177
2018-04-07T23:11:35.966Z,98180
2018-04-07T23:14:03.540Z,98177
2018-04-07T23:16:31.098Z,98182
2018-04-07T23:18:58.666Z,98172
2018-04-07T23:21:26.225Z,98171
2018-04-07T23:23:54.538Z,98172
2018-04-07T23:26:22.090Z,98168
2018-04-07T23:28:49.639Z,98175
2018-04-07T23:31:17.191Z,98166
2018-04-07T23:33:45.511Z,98174
2018-04-07T23:36:13.074Z,98172
2018-04-07T23:38:40.626Z,98176
2018-04-07T23:41:08.195Z,98170
2018-04-07T23:43:35.749Z,98163
2018-04-07T23:46:03.295Z,98155
2018-04-07T23:48:31.112Z,98166
2018-04-07T23:50:59.445Z,98162
2018-04-07T23:53:27.001Z,98157
2018-04-07T23:55:54.565Z,98167
2018-04-07T23:58:22.106Z,98158
